Time;durP1;ratioP1;P1;durP2;ratioP2;P2;SDS_P1;SDS_P2;PMS_P1;PMS_P2;Temp;Humidity;BMP_temperature;BMP_pressure;BME280_temperature;BME280_humidity;BME280_pressure;Samples;Min_cycle;Max_cycle;Signal;HPM_P1;HPM_P2
2023/08/25 00:00:48;;;;;;;;;;;;;;;19.83;99.58;100847.47;5022206;28;1895;-78
2023/08/25 00:03:14;;;;;;;;;;;;;;;19.83;99.57;100860.63;5021934;28;1118;-78
2023/08/25 00:05:39;;;;;;;;;;;;;;;19.78;99.65;100866.44;5026417;28;1047;-78
2023/08/25 00:08:05;;;;;;;;;;;;;;;19.76;99.83;100867.66;5034853;28;1454;-77
2023/08/25 00:10:30;;;;;;;;;;;;;;;19.72;99.80;100869.81;5035754;28;1148;-77
2023/08/25 00:12:56;;;;;;;;;;;;;;;19.71;100.00;100865.56;5036187;28;1012;-78
2023/08/25 00:15:21;;;;;;;;;;;;;;;19.73;100.00;100875.94;5021000;28;1161;-77
2023/08/25 00:17:46;;;;;;;;;;;;;;;19.73;100.00;100873.28;5013827;28;1533;-77
2023/08/25 00:20:12;;;;;;;;;;;;;;;19.73;100.00;100874.09;5011687;28;1975;-78
2023/08/25 00:22:37;;;;;;;;;;;;;;;19.71;100.00;100864.75;5032094;28;1141;-77
2023/08/25 00:25:03;;;;;;;;;;;;;;;19.69;100.00;100862.31;5018055;28;1180;-77
2023/08/25 00:27:28;;;;;;;;;;;;;;;19.67;100.00;100874.00;5029237;28;1193;-77
2023/08/25 00:29:53;;;;;;;;;;;;;;;19.67;100.00;100874.00;5016951;28;1355;-76
2023/08/25 00:32:19;;;;;;;;;;;;;;;19.70;100.00;100878.91;5030726;28;1188;-78
2023/08/25 00:34:44;;;;;;;;;;;;;;;19.71;99.94;100880.53;5035028;28;1193;-79
2023/08/25 00:37:10;;;;;;;;;;;;;;;19.69;99.97;100890.44;5027524;28;1407;-76
2023/08/25 00:39:35;;;;;;;;;;;;;;;19.66;100.00;100888.16;5007536;28;1969;-78
2023/08/25 00:42:00;;;;;;;;;;;;;;;19.63;100.00;100890.16;5028294;28;1444;-78
2023/08/25 00:44:26;;;;;;;;;;;;;;;19.62;100.00;100883.28;5010799;28;1215;-78
2023/08/25 00:46:51;;;;;;;;;;;;;;;19.62;100.00;100883.28;5027268;28;1051;-79
2023/08/25 00:49:16;;;;;;;;;;;;;;;19.65;100.00;100886.53;5035254;28;1009;-78
2023/08/25 00:51:41;;;;;;;;;;;;;;;19.62;99.99;100883.28;5030555;28;1294;-79
2023/08/25 00:54:07;;;;;;;;;;;;;;;19.62;100.00;100888.53;5029519;28;1089;-78
2023/08/25 00:56:33;;;;;;;;;;;;;;;19.62;100.00;100893.00;5023691;28;1569;-79
2023/08/25 00:58:58;;;;;;;;;;;;;;;19.60;99.98;100895.78;5032669;28;1078;-81
2023/08/25 01:01:23;;;;;;;;;;;;;;;19.59;100.00;100896.78;5031742;28;1977;-78
2023/08/25 01:03:49;;;;;;;;;;;;;;;19.57;100.00;100890.88;5023154;28;1020;-77
2023/08/25 01:06:15;;;;;;;;;;;;;;;19.56;100.00;100886.63;5019556;28;1133;-78
2023/08/25 01:08:41;;;;;;;;;;;;;;;19.57;100.00;100884.78;5016685;28;1796;-78
2023/08/25 01:11:18;;;;;;;;;;;;;;;19.55;100.00;100887.59;5021519;28;1141;-79
2023/08/25 01:14:06;;;;;;;;;;;;;;;19.55;100.00;100892.84;5030393;28;1066;-78
2023/08/25 01:16:43;;;;;;;;;;;;;;;19.50;100.00;100882.06;5039730;28;1170;-77
2023/08/25 01:19:20;;;;;;;;;;;;;;;19.47;100.00;100885.06;5031277;28;1195;-79
2023/08/25 01:21:49;;;;;;;;;;;;;;;19.45;100.00;100876.53;5028286;28;1132;-77
2023/08/25 01:24:28;;;;;;;;;;;;;;;19.44;100.00;100880.19;5031328;28;1206;-78
2023/08/25 01:26:54;;;;;;;;;;;;;;;19.41;100.00;100883.16;5025148;28;1479;-77
2023/08/25 01:29:19;;;;;;;;;;;;;;;19.41;100.00;100869.19;5024343;28;1222;-78
2023/08/25 01:31:44;;;;;;;;;;;;;;;19.42;100.00;100866.38;5037297;28;1168;-78
2023/08/25 01:34:09;;;;;;;;;;;;;;;19.41;100.00;100859.47;5036754;28;1211;-78
2023/08/25 01:36:39;;;;;;;;;;;;;;;19.39;100.00;100855.41;5032086;28;1277;-78
2023/08/25 01:39:10;;;;;;;;;;;;;;;19.36;100.00;100852.13;5031498;28;1227;-78
2023/08/25 01:41:52;;;;;;;;;;;;;;;19.35;100.00;100857.59;5014108;28;1989;-76
2023/08/25 01:44:18;;;;;;;;;;;;;;;19.31;100.00;100851.03;5029231;28;1250;-78
2023/08/25 01:46:46;;;;;;;;;;;;;;;19.29;100.00;100847.78;5027162;28;1359;-78
2023/08/25 01:49:13;;;;;;;;;;;;;;;19.29;100.00;100853.88;5027255;28;1104;-78
2023/08/25 01:51:39;;;;;;;;;;;;;;;19.30;100.00;100852.06;5026791;28;1370;-79
2023/08/25 01:54:04;;;;;;;;;;;;;;;19.29;100.00;100850.41;5031170;28;1150;-78
2023/08/25 01:56:29;;;;;;;;;;;;;;;19.29;100.00;100855.69;5002542;28;1179;-78
2023/08/25 01:58:54;;;;;;;;;;;;;;;19.30;100.00;100858.13;5031432;28;1162;-79
2023/08/25 02:01:20;;;;;;;;;;;;;;;19.34;100.00;100850.69;5026256;28;1894;-79
2023/08/25 02:03:45;;;;;;;;;;;;;;;19.35;100.00;100850.50;5022430;28;1587;-78
2023/08/25 02:06:10;;;;;;;;;;;;;;;19.39;100.00;100856.22;5027282;28;1221;-78
2023/08/25 02:08:36;;;;;;;;;;;;;;;19.39;100.00;100842.28;5019434;28;1300;-77
2023/08/25 02:11:01;;;;;;;;;;;;;;;19.42;100.00;100844.50;5009244;28;1499;-78
2023/08/25 02:13:27;;;;;;;;;;;;;;;19.43;100.00;100846.97;5026974;28;1158;-76
2023/08/25 02:15:53;;;;;;;;;;;;;;;19.45;100.00;100839.72;5026000;28;1064;-76
2023/08/25 02:18:18;;;;;;;;;;;;;;;19.48;100.00;100833.25;5022992;28;1126;-78
2023/08/25 02:20:43;;;;;;;;;;;;;;;19.50;100.00;100833.91;5023999;28;1899;-80
2023/08/25 02:23:09;;;;;;;;;;;;;;;19.51;100.00;100836.34;5021532;28;1184;-77
2023/08/25 02:25:34;;;;;;;;;;;;;;;19.51;100.00;100833.72;5034487;28;1107;-78
2023/08/25 02:27:59;;;;;;;;;;;;;;;19.51;100.00;100836.34;5030389;28;1113;-79
2023/08/25 02:30:24;;;;;;;;;;;;;;;19.52;100.00;100840.63;5027430;28;1115;-77
2023/08/25 02:32:50;;;;;;;;;;;;;;;19.51;100.00;100828.47;5037588;28;1228;-78
2023/08/25 02:35:15;;;;;;;;;;;;;;;19.52;100.00;100829.28;5025581;28;1200;-78
2023/08/25 02:37:56;;;;;;;;;;;;;;;19.50;100.00;100826.84;5027037;28;1185;-78
2023/08/25 02:40:21;;;;;;;;;;;;;;;19.50;100.00;100821.56;5028262;28;1964;-78
2023/08/25 02:42:46;;;;;;;;;;;;;;;19.46;100.00;100809.78;5032166;28;1012;-79
2023/08/25 02:45:12;;;;;;;;;;;;;;;19.44;100.00;100806.53;5026266;28;1058;-78
2023/08/25 02:47:37;;;;;;;;;;;;;;;19.43;100.00;100802.25;5024111;28;1287;-80
2023/08/25 02:50:03;;;;;;;;;;;;;;;19.43;100.00;100802.25;5027096;28;1162;-78
2023/08/25 02:52:28;;;;;;;;;;;;;;;19.44;100.00;100801.25;5027675;28;1178;-78
2023/08/25 02:54:53;;;;;;;;;;;;;;;19.45;100.00;100792.38;5030730;28;986;-78
2023/08/25 02:57:18;;;;;;;;;;;;;;;19.47;100.00;100790.34;5033336;28;1142;-79
2023/08/25 02:59:45;;;;;;;;;;;;;;;19.48;100.00;100791.16;5018258;28;1906;-79
2023/08/25 03:02:10;;;;;;;;;;;;;;;19.47;100.00;100782.47;5033901;28;1327;-77
2023/08/25 03:04:35;;;;;;;;;;;;;;;19.48;100.00;100778.84;5031994;28;1230;-79
2023/08/25 03:07:00;;;;;;;;;;;;;;;19.48;100.00;100776.19;5018315;28;999;-78
2023/08/25 03:09:26;;;;;;;;;;;;;;;19.47;100.00;100779.03;5032163;28;1070;-79
2023/08/25 03:11:51;;;;;;;;;;;;;;;19.47;100.00;100771.94;5010810;28;1530;-78
2023/08/25 03:14:18;;;;;;;;;;;;;;;19.48;100.00;100775.38;5010212;28;1193;-78
2023/08/25 03:16:43;;;;;;;;;;;;;;;19.47;100.00;100758.78;5020136;28;1125;-78
2023/08/25 03:19:08;;;;;;;;;;;;;;;19.44;100.00;100759.19;5017659;28;1408;-78
2023/08/25 03:21:33;;;;;;;;;;;;;;;19.43;100.00;100756.72;5030212;28;1898;-78
2023/08/25 03:23:59;;;;;;;;;;;;;;;19.43;100.00;100768.03;5032609;28;1137;-78
2023/08/25 03:26:24;;;;;;;;;;;;;;;19.41;100.00;100759.53;5025368;28;1212;-78
2023/08/25 03:28:49;;;;;;;;;;;;;;;19.41;100.00;100756.09;5030443;28;1240;-78
2023/08/25 03:31:14;;;;;;;;;;;;;;;19.40;100.00;100750.03;5017666;28;1581;-77
2023/08/25 03:33:40;;;;;;;;;;;;;;;19.39;100.00;100760.72;5033615;28;1263;-78
2023/08/25 03:36:05;;;;;;;;;;;;;;;19.39;100.00;100751.03;5029910;28;1464;-79
2023/08/25 03:38:30;;;;;;;;;;;;;;;19.37;100.00;100745.94;5017734;28;1184;-78
2023/08/25 03:40:58;;;;;;;;;;;;;;;19.35;100.00;100744.50;5037243;28;1959;-78
2023/08/25 03:43:24;;;;;;;;;;;;;;;19.34;100.00;100748.13;5037913;28;1388;-77
2023/08/25 03:45:49;;;;;;;;;;;;;;;19.33;100.00;100743.88;5020423;28;1181;-79
2023/08/25 03:48:14;;;;;;;;;;;;;;;19.33;100.00;100741.25;5036859;28;1253;-79
2023/08/25 03:50:39;;;;;;;;;;;;;;;19.35;100.00;100739.22;5027833;28;1324;-79
2023/08/25 03:53:04;;;;;;;;;;;;;;;19.34;100.00;100737.59;5031257;28;1639;-79
2023/08/25 03:55:30;;;;;;;;;;;;;;;19.35;100.00;100744.50;5016878;28;1276;-79
2023/08/25 03:57:55;;;;;;;;;;;;;;;19.36;100.00;100740.84;5033425;28;1145;-79
2023/08/25 04:00:20;;;;;;;;;;;;;;;19.36;100.00;100730.34;5011228;28;1951;-79
2023/08/25 04:02:45;;;;;;;;;;;;;;;19.35;100.00;100734.78;5027235;28;1194;-79
2023/08/25 04:05:11;;;;;;;;;;;;;;;19.33;100.00;100725.47;5029431;28;1214;-77
2023/08/25 04:07:36;;;;;;;;;;;;;;;19.34;100.00;100727.09;5022563;28;1133;-80
2023/08/25 04:10:03;;;;;;;;;;;;;;;19.34;100.00;100721.81;5009331;28;1184;-79
2023/08/25 04:12:28;;;;;;;;;;;;;;;19.35;100.00;100723.44;5031313;28;1077;-80
2023/08/25 04:14:53;;;;;;;;;;;;;;;19.37;100.00;100726.69;5016568;28;1236;-80
2023/08/25 04:17:18;;;;;;;;;;;;;;;19.37;100.00;100726.69;5011883;28;1203;-79
2023/08/25 04:19:44;;;;;;;;;;;;;;;19.38;100.00;100720.44;5028796;28;1965;-78
2023/08/25 04:22:09;;;;;;;;;;;;;;;19.38;100.00;100725.69;5009068;28;1329;-79
2023/08/25 04:24:34;;;;;;;;;;;;;;;19.37;100.00;100726.69;5031378;28;1106;-78
2023/08/25 04:26:59;;;;;;;;;;;;;;;19.38;100.00;100733.59;5028287;28;1363;-79
2023/08/25 04:29:25;;;;;;;;;;;;;;;19.36;100.00;100725.88;5036664;28;1282;-80
2023/08/25 04:31:50;;;;;;;;;;;;;;;19.37;100.00;100721.44;5034027;28;1324;-77
2023/08/25 04:34:15;;;;;;;;;;;;;;;19.35;100.00;100719.00;5029296;28;1427;-79
2023/08/25 04:36:41;;;;;;;;;;;;;;;19.35;100.00;100723.44;5022668;28;1428;-79
2023/08/25 04:39:06;;;;;;;;;;;;;;;19.34;100.00;100727.09;5037478;28;1349;-79
2023/08/25 04:41:31;;;;;;;;;;;;;;;19.34;100.00;100727.09;5012262;28;1891;-80
2023/08/25 04:43:56;;;;;;;;;;;;;;;19.34;100.00;100732.34;5035294;28;955;-80
2023/08/25 04:46:22;;;;;;;;;;;;;;;19.34;100.00;100732.34;5030157;28;1322;-80
2023/08/25 04:48:48;;;;;;;;;;;;;;;19.32;100.00;100729.06;5031658;28;1335;-79
2023/08/25 04:51:13;;;;;;;;;;;;;;;19.34;100.00;100716.56;5016470;28;1603;-80
2023/08/25 04:53:39;;;;;;;;;;;;;;;19.34;100.00;100722.63;5037573;28;1453;-79
2023/08/25 04:56:05;;;;;;;;;;;;;;;19.34;100.00;100721.81;5028841;28;1085;-78
2023/08/25 04:58:30;;;;;;;;;;;;;;;19.35;100.00;100715.56;5033958;28;1361;-78
2023/08/25 05:00:55;;;;;;;;;;;;;;;19.36;100.00;100714.56;5030190;28;1939;-78
2023/08/25 05:03:20;;;;;;;;;;;;;;;19.34;100.00;100712.13;5030392;28;1478;-81
2023/08/25 05:05:46;;;;;;;;;;;;;;;19.35;100.00;100705.84;5031827;28;1420;-79
2023/08/25 05:08:11;;;;;;;;;;;;;;;19.36;100.00;100714.56;5033012;28;1166;-79
2023/08/25 05:10:36;;;;;;;;;;;;;;;19.36;100.00;100711.94;5033734;28;1106;-78
2023/08/25 05:13:02;;;;;;;;;;;;;;;19.37;100.00;100710.91;5029358;28;998;-80
2023/08/25 05:15:28;;;;;;;;;;;;;;;19.37;100.00;100708.28;5028709;28;1217;-77
2023/08/25 05:17:54;;;;;;;;;;;;;;;19.38;100.00;100712.53;5024306;28;1217;-77
2023/08/25 05:20:21;;;;;;;;;;;;;;;19.39;100.00;100701.06;5023564;28;1902;-78
2023/08/25 05:22:47;;;;;;;;;;;;;;;19.37;100.00;100703.03;5010847;28;1326;-77
2023/08/25 05:25:13;;;;;;;;;;;;;;;19.37;100.00;100706.47;5024364;28;1152;-77
2023/08/25 05:27:39;;;;;;;;;;;;;;;19.36;100.00;100709.28;5024962;28;1193;-77
2023/08/25 05:30:05;;;;;;;;;;;;;;;19.34;100.00;100704.22;5024855;28;1138;-77
2023/08/25 05:32:30;;;;;;;;;;;;;;;19.30;100.00;100689.00;5022427;28;1352;-78
2023/08/25 05:34:55;;;;;;;;;;;;;;;19.35;100.00;100707.66;5018378;28;1146;-77
2023/08/25 05:37:20;;;;;;;;;;;;;;;19.35;100.00;100702.41;4999811;28;1438;-78
2023/08/25 05:39:45;;;;;;;;;;;;;;;19.35;100.00;100707.66;5022110;28;1989;-77
2023/08/25 05:42:10;;;;;;;;;;;;;;;19.36;100.00;100698.78;5027167;28;1500;-77
2023/08/25 05:44:36;;;;;;;;;;;;;;;19.36;100.00;100688.25;5011621;28;1357;-77
2023/08/25 05:47:01;;;;;;;;;;;;;;;19.37;100.00;100705.66;5026223;28;1430;-76
2023/08/25 05:49:26;;;;;;;;;;;;;;;19.39;100.00;100701.06;5036418;28;1245;-78
2023/08/25 05:51:51;;;;;;;;;;;;;;;19.40;100.00;100692.16;5016478;28;1235;-78
2023/08/25 05:54:16;;;;;;;;;;;;;;;19.41;100.00;100691.16;5030488;28;1359;-78
2023/08/25 05:56:42;;;;;;;;;;;;;;;19.43;100.00;100694.41;5010868;28;1302;-77
2023/08/25 05:59:07;;;;;;;;;;;;;;;19.43;100.00;100688.31;5024743;28;1200;-77
2023/08/25 06:01:32;;;;;;;;;;;;;;;19.41;100.00;100691.16;5004598;28;1895;-77
2023/08/25 06:03:57;;;;;;;;;;;;;;;19.42;100.00;100698.03;5027165;28;1190;-77
2023/08/25 06:06:23;;;;;;;;;;;;;;;19.43;100.00;100689.13;5013002;28;1673;-77
2023/08/25 06:08:48;;;;;;;;;;;;;;;19.44;100.00;100679.44;5027874;28;1119;-77
2023/08/25 06:11:13;;;;;;;;;;;;;;;19.45;100.00;100684.53;5029619;28;1237;-78
2023/08/25 06:13:39;;;;;;;;;;;;;;;19.46;100.00;100683.50;5026636;28;1228;-77
2023/08/25 06:16:04;;;;;;;;;;;;;;;19.46;100.00;100688.78;5031181;28;1358;-78
2023/08/25 06:18:29;;;;;;;;;;;;;;;19.47;100.00;100679.06;5027463;28;1376;-78
2023/08/25 06:20:54;;;;;;;;;;;;;;;19.49;100.00;100677.88;5020821;28;1960;-77
2023/08/25 06:23:19;;;;;;;;;;;;;;;19.50;100.00;100683.97;5030000;28;1128;-78
2023/08/25 06:25:45;;;;;;;;;;;;;;;19.51;100.00;100690.84;5023006;28;1142;-77
2023/08/25 06:28:10;;;;;;;;;;;;;;;19.49;100.00;100692.84;5023228;28;1200;-78
2023/08/25 06:30:36;;;;;;;;;;;;;;;19.42;100.00;100690.16;5028900;28;1094;-78
2023/08/25 06:33:01;;;;;;;;;;;;;;;19.44;100.00;100703.94;5024102;28;1130;-77
2023/08/25 06:35:26;;;;;;;;;;;;;;;19.46;100.00;100719.53;5020473;28;1098;-77
2023/08/25 06:37:51;;;;;;;;;;;;;;;19.46;100.00;100720.34;5017846;28;1094;-77
2023/08/25 06:40:17;;;;;;;;;;;;;;;19.47;100.00;100721.97;5026521;28;1960;-78
2023/08/25 06:42:42;;;;;;;;;;;;;;;19.47;100.00;100721.97;5028318;28;1078;-77
2023/08/25 06:45:07;;;;;;;;;;;;;;;19.46;100.00;100699.28;5026041;28;1350;-77
2023/08/25 06:47:34;;;;;;;;;;;;;;;19.44;100.00;100680.28;5027687;28;1114;-77
2023/08/25 06:49:59;;;;;;;;;;;;;;;19.46;100.00;100683.50;5024539;28;1214;-77
2023/08/25 06:52:24;;;;;;;;;;;;;;;19.46;100.00;100661.66;5017956;28;2321;-77
2023/08/25 06:54:50;;;;;;;;;;;;;;;19.46;100.00;100673.00;5032274;28;1130;-76
2023/08/25 06:57:15;;;;;;;;;;;;;;;19.46;100.00;100683.50;5022712;28;1641;-77
2023/08/25 06:59:40;;;;;;;;;;;;;;;19.45;100.00;100697.69;5028154;28;1917;-77
2023/08/25 07:02:05;;;;;;;;;;;;;;;19.42;100.00;100708.56;5008608;28;1381;-77
2023/08/25 07:04:31;;;;;;;;;;;;;;;19.41;100.00;100706.94;5021750;28;1420;-77
2023/08/25 07:06:56;;;;;;;;;;;;;;;19.39;100.00;100708.94;5027629;28;1017;-77
2023/08/25 07:09:21;;;;;;;;;;;;;;;19.33;100.00;100699.16;5031790;28;1388;-77
2023/08/25 07:11:46;;;;;;;;;;;;;;;19.31;100.00;100690.63;5029223;28;1360;-76
2023/08/25 07:14:12;;;;;;;;;;;;;;;19.28;100.00;100664.72;5028373;28;1395;-77
2023/08/25 07:16:37;;;;;;;;;;;;;;;19.26;100.00;100641.22;5032650;28;1162;-77
2023/08/25 07:19:02;;;;;;;;;;;;;;;19.23;100.00;100646.06;5026663;28;1185;-76
2023/08/25 07:21:29;;;;;;;;;;;;;;;19.22;100.00;100655.75;5031654;28;1898;-77
2023/08/25 07:23:55;;;;;;;;;;;;;;;19.18;100.00;100649.22;5031344;28;1175;-77
2023/08/25 07:26:20;;;;;;;;;;;;;;;19.20;100.00;100635.88;5022885;28;1157;-77
2023/08/25 07:28:46;;;;;;;;;;;;;;;19.17;100.00;100629.19;5029618;28;1296;-77
2023/08/25 07:31:11;;;;;;;;;;;;;;;19.12;100.00;100615.78;5024156;28;1224;-77
2023/08/25 07:33:37;;;;;;;;;;;;;;;19.12;100.00;100628.13;5030932;28;1585;-75
2023/08/25 07:36:03;;;;;;;;;;;;;;;19.16;100.00;100632.84;5024245;28;1178;-77
2023/08/25 07:38:29;;;;;;;;;;;;;;;19.21;100.00;100629.63;5019493;28;1064;-77
2023/08/25 07:40:54;;;;;;;;;;;;;;;19.25;100.00;100644.03;5026384;28;1894;-77
2023/08/25 07:43:19;;;;;;;;;;;;;;;19.27;100.00;100636.78;5023478;28;1583;-77
2023/08/25 07:45:44;;;;;;;;;;;;;;;19.23;100.00;100609.25;5023176;28;1262;-78
2023/08/25 07:48:09;;;;;;;;;;;;;;;19.13;100.00;100612.16;5022434;28;1472;-76
2023/08/25 07:50:35;;;;;;;;;;;;;;;19.12;100.00;100617.63;5016946;28;1106;-77
2023/08/25 07:53:00;;;;;;;;;;;;;;;19.12;100.00;100649.97;5018363;28;1345;-78
2023/08/25 07:55:26;;;;;;;;;;;;;;;19.12;100.00;100670.19;5024692;28;1141;-78
2023/08/25 07:57:51;;;;;;;;;;;;;;;19.08;100.00;100717.88;5011154;28;1295;-79
2023/08/25 08:00:17;;;;;;;;;;;;;;;19.01;100.00;100764.28;5038873;28;1906;-78
2023/08/25 08:02:43;;;;;;;;;;;;;;;18.95;100.00;100765.00;5011898;28;1174;-81
2023/08/25 08:05:08;;;;;;;;;;;;;;;18.90;100.00;100741.09;5033936;28;1186;-79
2023/08/25 08:07:34;;;;;;;;;;;;;;;18.88;100.00;100722.06;5034766;28;1126;-78
2023/08/25 08:09:59;;;;;;;;;;;;;;;18.88;100.00;100711.56;5020313;28;1225;-77
2023/08/25 08:12:25;;;;;;;;;;;;;;;18.91;100.00;100716.44;5034319;28;1130;-76
2023/08/25 08:14:50;;;;;;;;;;;;;;;18.94;100.00;100704.75;5036859;28;1077;-77
2023/08/25 08:17:15;;;;;;;;;;;;;;;18.99;100.00;100697.13;5032739;28;1189;-76
2023/08/25 08:19:40;;;;;;;;;;;;;;;19.04;100.00;100689.53;5012568;28;1898;-76
2023/08/25 08:22:06;;;;;;;;;;;;;;;19.09;100.00;100692.38;5028723;28;1205;-76
2023/08/25 08:24:31;;;;;;;;;;;;;;;19.12;100.00;100702.56;5039382;28;1098;-76
2023/08/25 08:26:57;;;;;;;;;;;;;;;19.13;100.00;100708.63;5031167;28;1130;-77
2023/08/25 08:29:22;;;;;;;;;;;;;;;19.15;100.00;100707.44;5032821;28;1502;-77
2023/08/25 08:31:47;;;;;;;;;;;;;;;19.17;100.00;100708.06;5032919;28;1158;-77
2023/08/25 08:34:12;;;;;;;;;;;;;;;19.20;100.00;100714.78;5032223;28;1352;-77
2023/08/25 08:36:38;;;;;;;;;;;;;;;19.21;100.00;100700.63;5027286;28;1110;-78
2023/08/25 08:39:04;;;;;;;;;;;;;;;19.23;100.00;100690.75;5023327;28;1167;-78
2023/08/25 08:41:29;;;;;;;;;;;;;;;19.20;100.00;100691.09;5028895;28;1946;-78
2023/08/25 08:43:58;;;;;;;;;;;;;;;19.16;100.00;100703.00;5030697;28;1123;-77
2023/08/25 08:46:25;;;;;;;;;;;;;;;19.14;100.00;100699.72;5022224;28;1124;-78
2023/08/25 08:48:51;;;;;;;;;;;;;;;19.10;100.00;100702.75;5023626;28;1475;-78
2023/08/25 08:51:17;;;;;;;;;;;;;;;19.09;100.00;100703.72;5019805;28;1261;-77
2023/08/25 08:53:43;;;;;;;;;;;;;;;19.08;100.00;100702.09;5029380;28;1146;-78
2023/08/25 08:56:08;;;;;;;;;;;;;;;19.07;100.00;100702.28;5021689;28;1170;-77
2023/08/25 08:58:34;;;;;;;;;;;;;;;19.08;100.00;100704.72;5024245;28;1177;-78
2023/08/25 09:01:00;;;;;;;;;;;;;;;19.07;100.00;100705.72;5026348;28;1890;-78
2023/08/25 09:03:30;;;;;;;;;;;;;;;19.07;100.00;100710.16;5021943;28;1185;-78
2023/08/25 09:05:57;;;;;;;;;;;;;;;19.07;100.00;100710.16;5037618;28;1154;-78
2023/08/25 09:08:23;;;;;;;;;;;;;;;19.09;100.00;100711.59;5025207;28;1178;-77
2023/08/25 09:10:48;;;;;;;;;;;;;;;19.09;100.00;100701.09;5032197;28;1411;-78
2023/08/25 09:13:13;;;;;;;;;;;;;;;19.10;100.00;100708.00;5034994;28;1130;-77
2023/08/25 09:15:38;;;;;;;;;;;;;;;19.11;100.00;100706.19;5034438;28;1231;-77
2023/08/25 09:18:05;;;;;;;;;;;;;;;19.10;100.00;100700.13;5040546;28;1487;-78
2023/08/25 09:20:33;;;;;;;;;;;;;;;19.10;100.00;100694.84;5037691;28;1898;-78
2023/08/25 09:22:59;;;;;;;;;;;;;;;19.14;100.00;100712.88;5038569;28;1152;-77
2023/08/25 09:25:24;;;;;;;;;;;;;;;19.12;100.00;100712.25;5028963;28;1331;-78
2023/08/25 09:27:55;;;;;;;;;;;;;;;19.10;100.00;100718.50;5036275;28;1129;-78
2023/08/25 09:30:20;;;;;;;;;;;;;;;19.06;100.00;100708.53;5037618;28;1492;-77
2023/08/25 09:32:45;;;;;;;;;;;;;;;19.06;100.00;100703.28;5033042;28;1248;-78
2023/08/25 09:35:12;;;;;;;;;;;;;;;19.04;100.00;100700.84;5032874;28;1174;-78
2023/08/25 09:37:39;;;;;;;;;;;;;;;19.02;100.00;100702.00;5034119;28;1294;-78
2023/08/25 09:40:04;;;;;;;;;;;;;;;19.02;100.00;100718.59;5028749;28;1894;-78
2023/08/25 09:42:30;;;;;;;;;;;;;;;19.02;100.00;100736.19;5016863;28;1372;-78
2023/08/25 09:44:58;;;;;;;;;;;;;;;19.02;100.00;100751.97;5028138;28;1153;-76
2023/08/25 09:47:26;;;;;;;;;;;;;;;19.00;100.00;100752.16;5028404;28;1364;-78
2023/08/25 09:49:51;;;;;;;;;;;;;;;18.98;100.00;100733.13;5015739;28;1310;-78
2023/08/25 09:52:17;;;;;;;;;;;;;;;18.97;100.00;100731.47;5011566;28;1240;-77
2023/08/25 09:54:42;;;;;;;;;;;;;;;18.97;100.00;100710.44;5006704;28;1542;-78
2023/08/25 09:57:08;;;;;;;;;;;;;;;19.00;100.00;100710.09;5024487;28;1189;-78
2023/08/25 09:59:33;;;;;;;;;;;;;;;19.04;100.00;100707.94;5010892;28;1902;-79
2023/08/25 10:01:58;;;;;;;;;;;;;;;19.10;100.00;100717.72;5026032;28;1313;-78
2023/08/25 10:04:24;;;;;;;;;;;;;;;19.14;100.00;100699.72;5030275;28;1117;-78
2023/08/25 10:06:49;;;;;;;;;;;;;;;19.20;100.00;100683.22;5028677;28;1193;-78
2023/08/25 10:09:15;;;;;;;;;;;;;;;19.26;100.00;100685.09;5018803;28;1178;-78
2023/08/25 10:11:43;;;;;;;;;;;;;;;19.30;100.00;100694.25;5034109;28;1287;-78
2023/08/25 10:14:10;;;;;;;;;;;;;;;19.37;100.00;100689.88;5031116;28;1128;-78
2023/08/25 10:16:45;;;;;;;;;;;;;;;19.47;100.00;100695.66;5030108;28;1496;-78
2023/08/25 10:19:12;;;;;;;;;;;;;;;19.60;100.00;100697.63;5037326;28;1073;-77
2023/08/25 10:21:38;;;;;;;;;;;;;;;19.71;100.00;100691.06;5032451;28;1897;-79
2023/08/25 10:24:03;;;;;;;;;;;;;;;19.83;100.00;100689.56;5035257;28;1177;-78
2023/08/25 10:26:29;;;;;;;;;;;;;;;19.90;100.00;100690.44;5040159;28;1122;-78
2023/08/25 10:28:55;;;;;;;;;;;;;;;19.94;100.00;100691.69;5011965;28;1244;-78
2023/08/25 10:31:20;;;;;;;;;;;;;;;19.98;100.00;100695.56;5034231;28;1322;-77
2023/08/25 10:33:46;;;;;;;;;;;;;;;20.06;100.00;100695.44;5032586;28;1095;-78
2023/08/25 10:36:14;;;;;;;;;;;;;;;20.13;100.00;100701.59;5026980;28;1130;-78
2023/08/25 10:38:39;;;;;;;;;;;;;;;20.22;100.00;100699.59;5031226;28;1257;-78
2023/08/25 10:41:12;;;;;;;;;;;;;;;20.28;100.00;100708.56;5028961;28;1945;-78
2023/08/25 10:43:40;;;;;;;;;;;;;;;20.31;100.00;100708.19;5025424;28;1032;-77
2023/08/25 10:46:05;;;;;;;;;;;;;;;20.35;100.00;100704.16;5029137;28;1264;-78
2023/08/25 10:48:31;;;;;;;;;;;;;;;20.34;100.00;100707.78;5012068;28;1428;-79
2023/08/25 10:51:09;;;;;;;;;;;;;;;20.34;100.00;100705.16;5034226;28;1165;-78
2023/08/25 10:53:36;;;;;;;;;;;;;;;20.39;100.00;100700.13;5026689;28;1233;-78
2023/08/25 10:56:22;;;;;;;;;;;;;;;20.42;100.00;100710.31;5023100;28;1093;-79
2023/08/25 10:59:03;;;;;;;;;;;;;;;20.44;100.00;100703.00;5024486;28;1133;-78
2023/08/25 11:01:38;;;;;;;;;;;;;;;20.47;100.00;100691.28;5026507;28;1981;-78
2023/08/25 11:04:04;;;;;;;;;;;;;;;20.49;100.00;100686.66;5029016;28;1107;-79
2023/08/25 11:06:35;;;;;;;;;;;;;;;20.52;100.00;100694.97;5028303;28;1416;-79
2023/08/25 11:09:01;;;;;;;;;;;;;;;20.57;100.00;100692.56;5004044;28;1236;-79
2023/08/25 11:11:27;;;;;;;;;;;;;;;20.57;100.00;100703.13;5016179;28;1188;-78
2023/08/25 11:13:56;;;;;;;;;;;;;;;20.59;100.00;100706.38;5014833;28;1355;-78
2023/08/25 11:16:21;;;;;;;;;;;;;;;20.55;100.00;100699.88;5018207;28;1342;-78
2023/08/25 11:18:46;;;;;;;;;;;;;;;20.53;100.00;100694.00;5023938;28;1146;-79
2023/08/25 11:21:11;;;;;;;;;;;;;;;20.54;100.00;100682.44;5028611;28;1898;-79
2023/08/25 11:23:45;;;;;;;;;;;;;;;20.62;100.00;100692.81;5026801;28;1478;-76
2023/08/25 11:26:15;;;;;;;;;;;;;;;20.60;100.00;100697.47;5012967;28;1379;-79
2023/08/25 11:28:40;;;;;;;;;;;;;;;20.58;100.00;100704.72;5001307;28;1529;-79
2023/08/25 11:31:07;;;;;;;;;;;;;;;20.56;100.00;100703.31;5028170;28;1195;-79
2023/08/25 11:33:32;;;;;;;;;;;;;;;20.57;100.00;100703.13;5039569;28;1129;-78
2023/08/25 11:35:58;;;;;;;;;;;;;;;20.67;100.00;100698.31;5036442;28;1150;-78
2023/08/25 11:38:23;;;;;;;;;;;;;;;20.79;100.00;100695.13;5037160;28;1258;-79
2023/08/25 11:40:52;;;;;;;;;;;;;;;20.83;100.00;100699.00;5032830;28;1961;-77
2023/08/25 11:43:18;;;;;;;;;;;;;;;20.84;100.00;100701.44;5034154;28;1338;-79
2023/08/25 11:45:45;;;;;;;;;;;;;;;20.87;100.00;100698.44;5029203;28;1106;-79
2023/08/25 11:48:11;;;;;;;;;;;;;;;20.87;100.00;100692.31;5034116;28;1190;-78
2023/08/25 11:50:37;;;;;;;;;;;;;;;20.83;100.00;100706.91;5031930;28;1264;-80
2023/08/25 11:53:02;;;;;;;;;;;;;;;20.82;100.00;100700.03;5016895;28;1201;-79
2023/08/25 11:55:32;;;;;;;;;;;;;;;20.81;100.00;100698.38;5032915;28;1106;-79
2023/08/25 11:57:57;;;;;;;;;;;;;;;20.81;100.00;100701.81;5031364;28;1197;-78
2023/08/25 12:00:22;;;;;;;;;;;;;;;20.79;100.00;100700.41;5035237;28;1953;-80
2023/08/25 12:02:57;;;;;;;;;;;;;;;20.77;100.00;100703.25;5025691;28;1478;-79
2023/08/25 12:05:22;;;;;;;;;;;;;;;20.76;100.00;100703.41;5030488;28;1187;-80
2023/08/25 12:07:47;;;;;;;;;;;;;;;20.68;100.00;100699.13;5012376;28;1230;-79
2023/08/25 12:10:18;;;;;;;;;;;;;;;20.63;100.00;100702.34;5025111;28;1151;-79
2023/08/25 12:12:45;;;;;;;;;;;;;;;20.64;100.00;100718.97;5026388;28;1194;-79
2023/08/25 12:15:10;;;;;;;;;;;;;;;20.63;100.00;100712.06;5032285;28;1169;-79
2023/08/25 12:17:36;;;;;;;;;;;;;;;20.66;100.00;100714.31;5027004;28;1371;-79
2023/08/25 12:20:10;;;;;;;;;;;;;;;20.61;100.00;100708.81;5019513;28;1890;-80
2023/08/25 12:22:48;;;;;;;;;;;;;;;20.56;100.00;100696.22;5022491;28;1119;-80
2023/08/25 12:25:13;;;;;;;;;;;;;;;20.63;100.00;100691.78;5023325;28;1142;-80
2023/08/25 12:27:38;;;;;;;;;;;;;;;20.68;100.00;100683.31;5033172;28;1188;-78
2023/08/25 12:30:04;;;;;;;;;;;;;;;20.78;100.00;100688.25;5029840;28;1272;-79
2023/08/25 12:32:29;;;;;;;;;;;;;;;20.89;100.00;100685.03;5032754;28;1455;-80